sensor_id;sensor_type;location;lat;lon;timestamp;P1;durP1;ratioP1;P2;durP2;ratioP2
2652;SDS011;1336;48.692;9.144;2024-03-29T06:00:12;0.70;;;0.60;;
2652;SDS011;1336;48.692;9.144;2024-03-29T06:01:05;1.20;;;0.60;;
2652;SDS011;1336;48.692;9.144;2024-03-29T06:01:56;1.13;;;0.70;;
2652;SDS011;1336;48.692;9.144;2024-03-29T06:02:47;1.00;;;0.80;;
2652;SDS011;1336;48.692;9.144;2024-03-29T06:03:38;0.80;;;0.67;;
2652;SDS011;1336;48.692;9.144;2024-03-29T06:04:29;0.80;;;0.60;;
2652;SDS011;1336;48.692;9.144;2024-03-29T06:05:22;1.30;;;0.77;;
2652;SDS011;1336;48.692;9.144;2024-03-29T06:06:13;1.20;;;0.80;;
2652;SDS011;1336;48.692;9.144;2024-03-29T06:07:07;1.00;;;0.90;;
2652;SDS011;1336;48.692;9.144;2024-03-29T06:07:59;1.00;;;0.70;;
2652;SDS011;1336;48.692;9.144;2024-03-29T06:08:50;0.80;;;0.67;;
2652;SDS011;1336;48.692;9.144;2024-03-29T06:09:41;0.98;;;0.63;;
2652;SDS011;1336;48.692;9.144;2024-03-29T06:10:33;1.88;;;0.95;;
2652;SDS011;1336;48.692;9.144;2024-03-29T06:11:24;0.80;;;0.60;;
2652;SDS011;1336;48.692;9.144;2024-03-29T06:12:14;0.90;;;0.80;;
2652;SDS011;1336;48.692;9.144;2024-03-29T06:13:06;0.82;;;0.80;;
2652;SDS011;1336;48.692;9.144;2024-03-29T06:13:58;0.82;;;0.65;;
2652;SDS011;1336;48.692;9.144;2024-03-29T06:15:20;1.55;;;0.80;;
2652;SDS011;1336;48.692;9.144;2024-03-29T06:16:29;0.90;;;0.75;;
2652;SDS011;1336;48.692;9.144;2024-03-29T06:17:38;1.00;;;0.70;;
2652;SDS011;1336;48.692;9.144;2024-03-29T06:18:30;0.93;;;0.75;;
2652;SDS011;1336;48.692;9.144;2024-03-29T06:19:20;1.00;;;0.70;;
2652;SDS011;1336;48.692;9.144;2024-03-29T06:20:12;1.00;;;0.80;;
2652;SDS011;1336;48.692;9.144;2024-03-29T06:21:04;2.25;;;0.80;;
2652;SDS011;1336;48.692;9.144;2024-03-29T06:21:55;0.90;;;0.68;;
2652;SDS011;1336;48.692;9.144;2024-03-29T06:22:47;1.00;;;0.70;;
2652;SDS011;1336;48.692;9.144;2024-03-29T06:23:37;0.80;;;0.60;;
2652;SDS011;1336;48.692;9.144;2024-03-29T06:24:29;2.08;;;0.70;;
2652;SDS011;1336;48.692;9.144;2024-03-29T06:25:22;0.80;;;0.60;;
2652;SDS011;1336;48.692;9.144;2024-03-29T06:26:14;0.80;;;0.60;;
2652;SDS011;1336;48.692;9.144;2024-03-29T06:27:04;0.97;;;0.80;;
2652;SDS011;1336;48.692;9.144;2024-03-29T06:27:55;1.10;;;0.77;;
2652;SDS011;1336;48.692;9.144;2024-03-29T06:28:47;1.60;;;0.70;;
2652;SDS011;1336;48.692;9.144;2024-03-29T06:29:38;1.07;;;0.80;;
2652;SDS011;1336;48.692;9.144;2024-03-29T06:30:30;1.63;;;0.80;;
2652;SDS011;1336;48.692;9.144;2024-03-29T06:31:21;0.80;;;0.60;;
2652;SDS011;1336;48.692;9.144;2024-03-29T06:32:12;1.93;;;0.70;;
2652;SDS011;1336;48.692;9.144;2024-03-29T06:33:03;1.33;;;0.70;;
2652;SDS011;1336;48.692;9.144;2024-03-29T06:33:55;1.42;;;0.80;;
2652;SDS011;1336;48.692;9.144;2024-03-29T06:34:47;1.20;;;0.98;;
2652;SDS011;1336;48.692;9.144;2024-03-29T06:35:38;0.80;;;0.60;;
2652;SDS011;1336;48.692;9.144;2024-03-29T06:36:30;1.13;;;0.70;;
2652;SDS011;1336;48.692;9.144;2024-03-29T06:37:21;1.00;;;0.70;;
2652;SDS011;1336;48.692;9.144;2024-03-29T06:38:12;1.70;;;0.67;;
2652;SDS011;1336;48.692;9.144;2024-03-29T06:39:05;1.20;;;0.70;;
2652;SDS011;1336;48.692;9.144;2024-03-29T06:39:56;1.07;;;0.70;;
2652;SDS011;1336;48.692;9.144;2024-03-29T06:40:47;0.90;;;0.63;;
2652;SDS011;1336;48.692;9.144;2024-03-29T06:41:38;1.73;;;0.80;;
2652;SDS011;1336;48.692;9.144;2024-03-29T06:42:30;0.70;;;0.50;;
2652;SDS011;1336;48.692;9.144;2024-03-29T06:43:22;1.30;;;0.73;;
2652;SDS011;1336;48.692;9.144;2024-03-29T06:44:13;0.90;;;0.60;;
2652;SDS011;1336;48.692;9.144;2024-03-29T06:45:04;0.80;;;0.60;;
2652;SDS011;1336;48.692;9.144;2024-03-29T06:45:57;1.25;;;0.82;;
2652;SDS011;1336;48.692;9.144;2024-03-29T06:46:50;0.95;;;0.70;;
2652;SDS011;1336;48.692;9.144;2024-03-29T06:47:41;2.08;;;0.70;;
2652;SDS011;1336;48.692;9.144;2024-03-29T06:48:31;1.23;;;0.70;;
2652;SDS011;1336;48.692;9.144;2024-03-29T06:49:23;1.05;;;0.77;;
2652;SDS011;1336;48.692;9.144;2024-03-29T06:50:14;0.90;;;0.80;;
2652;SDS011;1336;48.692;9.144;2024-03-29T06:51:06;1.85;;;0.80;;
2652;SDS011;1336;48.692;9.144;2024-03-29T06:51:56;1.23;;;0.90;;
2652;SDS011;1336;48.692;9.144;2024-03-29T06:52:49;1.42;;;0.93;;
2652;SDS011;1336;48.692;9.144;2024-03-29T06:53:41;1.40;;;1.10;;
2652;SDS011;1336;48.692;9.144;2024-03-29T06:54:32;1.10;;;1.00;;
2652;SDS011;1336;48.692;9.144;2024-03-29T06:55:23;1.00;;;0.82;;
2652;SDS011;1336;48.692;9.144;2024-03-29T06:56:15;1.10;;;0.82;;
2652;SDS011;1336;48.692;9.144;2024-03-29T06:57:05;1.00;;;0.70;;
2652;SDS011;1336;48.692;9.144;2024-03-29T06:57:57;1.17;;;0.90;;
2652;SDS011;1336;48.692;9.144;2024-03-29T06:58:49;1.27;;;0.98;;
2652;SDS011;1336;48.692;9.144;2024-03-29T06:59:40;1.20;;;0.90;;
2652;SDS011;1336;48.692;9.144;2024-03-29T07:00:32;0.80;;;0.77;;
2652;SDS011;1336;48.692;9.144;2024-03-29T07:01:24;1.10;;;1.00;;
2652;SDS011;1336;48.692;9.144;2024-03-29T07:02:15;1.70;;;1.13;;
2652;SDS011;1336;48.692;9.144;2024-03-29T07:03:07;1.10;;;1.00;;
2652;SDS011;1336;48.692;9.144;2024-03-29T07:03:57;1.33;;;0.80;;
2652;SDS011;1336;48.692;9.144;2024-03-29T07:04:49;1.30;;;0.90;;
2652;SDS011;1336;48.692;9.144;2024-03-29T07:05:40;1.40;;;1.10;;
2652;SDS011;1336;48.692;9.144;2024-03-29T07:06:31;1.20;;;1.00;;
2652;SDS011;1336;48.692;9.144;2024-03-29T07:07:22;1.35;;;1.08;;
2652;SDS011;1336;48.692;9.144;2024-03-29T07:08:13;1.27;;;0.90;;
2652;SDS011;1336;48.692;9.144;2024-03-29T07:09:05;1.10;;;0.90;;
2652;SDS011;1336;48.692;9.144;2024-03-29T07:09:56;1.10;;;0.90;;
2652;SDS011;1336;48.692;9.144;2024-03-29T07:10:47;2.60;;;1.30;;
2652;SDS011;1336;48.692;9.144;2024-03-29T07:11:39;1.55;;;1.13;;
2652;SDS011;1336;48.692;9.144;2024-03-29T07:12:29;1.70;;;0.93;;
2652;SDS011;1336;48.692;9.144;2024-03-29T07:13:20;1.00;;;0.80;;
2652;SDS011;1336;48.692;9.144;2024-03-29T07:14:12;1.77;;;1.20;;
2652;SDS011;1336;48.692;9.144;2024-03-29T07:15:03;2.87;;;1.50;;
2652;SDS011;1336;48.692;9.144;2024-03-29T07:15:55;2.97;;;1.52;;
2652;SDS011;1336;48.692;9.144;2024-03-29T07:16:47;4.33;;;1.30;;
2652;SDS011;1336;48.692;9.144;2024-03-29T07:17:37;1.60;;;1.50;;
2652;SDS011;1336;48.692;9.144;2024-03-29T07:18:30;2.30;;;1.33;;
2652;SDS011;1336;48.692;9.144;2024-03-29T07:19:21;1.37;;;1.13;;
2652;SDS011;1336;48.692;9.144;2024-03-29T07:20:12;1.50;;;1.20;;
2652;SDS011;1336;48.692;9.144;2024-03-29T07:21:04;2.13;;;1.52;;
2652;SDS011;1336;48.692;9.144;2024-03-29T07:21:54;1.20;;;0.90;;
2652;SDS011;1336;48.692;9.144;2024-03-29T07:22:46;1.25;;;0.90;;
2652;SDS011;1336;48.692;9.144;2024-03-29T07:23:37;1.40;;;1.10;;
2652;SDS011;1336;48.692;9.144;2024-03-29T07:24:27;1.30;;;1.00;;
2652;SDS011;1336;48.692;9.144;2024-03-29T07:25:19;1.35;;;1.10;;
2652;SDS011;1336;48.692;9.144;2024-03-29T07:26:10;1.27;;;1.10;;
2652;SDS011;1336;48.692;9.144;2024-03-29T07:27:02;1.65;;;1.15;;
2652;SDS011;1336;48.692;9.144;2024-03-29T07:27:53;1.35;;;1.00;;
2652;SDS011;1336;48.692;9.144;2024-03-29T07:28:45;1.70;;;1.00;;
2652;SDS011;1336;48.692;9.144;2024-03-29T07:29:35;2.70;;;1.20;;
2652;SDS011;1336;48.692;9.144;2024-03-29T07:30:26;2.10;;;1.23;;
2652;SDS011;1336;48.692;9.144;2024-03-29T07:31:18;1.33;;;0.98;;
2652;SDS011;1336;48.692;9.144;2024-03-29T07:32:10;1.60;;;1.47;;
2652;SDS011;1336;48.692;9.144;2024-03-29T07:33:02;1.77;;;1.30;;
2652;SDS011;1336;48.692;9.144;2024-03-29T07:33:53;1.83;;;1.10;;
2652;SDS011;1336;48.692;9.144;2024-03-29T07:38:11;2.05;;;1.40;;
2652;SDS011;1336;48.692;9.144;2024-03-29T07:39:02;1.90;;;1.20;;
2652;SDS011;1336;48.692;9.144;2024-03-29T07:39:54;1.42;;;1.10;;
2652;SDS011;1336;48.692;9.144;2024-03-29T07:40:45;1.33;;;1.00;;
2652;SDS011;1336;48.692;9.144;2024-03-29T07:41:35;1.57;;;1.10;;
2652;SDS011;1336;48.692;9.144;2024-03-29T07:42:27;1.80;;;1.30;;
2652;SDS011;1336;48.692;9.144;2024-03-29T07:43:18;1.30;;;1.20;;
2652;SDS011;1336;48.692;9.144;2024-03-29T07:44:09;1.25;;;1.08;;
2652;SDS011;1336;48.692;9.144;2024-03-29T07:45:01;3.38;;;1.45;;
2652;SDS011;1336;48.692;9.144;2024-03-29T07:45:53;2.00;;;1.40;;
2652;SDS011;1336;48.692;9.144;2024-03-29T07:46:43;1.40;;;1.30;;
2652;SDS011;1336;48.692;9.144;2024-03-29T07:47:38;2.53;;;1.42;;
2652;SDS011;1336;48.692;9.144;2024-03-29T07:48:29;2.40;;;1.33;;
2652;SDS011;1336;48.692;9.144;2024-03-29T07:49:20;3.22;;;1.98;;
2652;SDS011;1336;48.692;9.144;2024-03-29T07:50:12;2.05;;;1.85;;
2652;SDS011;1336;48.692;9.144;2024-03-29T07:51:03;2.17;;;1.97;;
2652;SDS011;1336;48.692;9.144;2024-03-29T07:51:53;3.90;;;3.50;;
2652;SDS011;1336;48.692;9.144;2024-03-29T07:52:45;4.05;;;3.75;;
2652;SDS011;1336;48.692;9.144;2024-03-29T07:53:36;4.90;;;4.13;;
2652;SDS011;1336;48.692;9.144;2024-03-29T07:54:27;3.80;;;3.50;;
2652;SDS011;1336;48.692;9.144;2024-03-29T07:55:18;3.00;;;2.80;;
2652;SDS011;1336;48.692;9.144;2024-03-29T07:56:09;2.53;;;2.33;;
2652;SDS011;1336;48.692;9.144;2024-03-29T07:57:00;1.70;;;1.60;;
2652;SDS011;1336;48.692;9.144;2024-03-29T07:57:52;1.75;;;1.38;;
2652;SDS011;1336;48.692;9.144;2024-03-29T07:58:43;1.50;;;1.20;;
2652;SDS011;1336;48.692;9.144;2024-03-29T07:59:35;1.65;;;0.90;;
2652;SDS011;1336;48.692;9.144;2024-03-29T08:00:26;1.57;;;1.23;;
2652;SDS011;1336;48.692;9.144;2024-03-29T08:01:20;2.07;;;1.50;;
2652;SDS011;1336;48.692;9.144;2024-03-29T08:02:12;2.05;;;1.65;;
2652;SDS011;1336;48.692;9.144;2024-03-29T08:03:04;2.23;;;2.03;;
2652;SDS011;1336;48.692;9.144;2024-03-29T08:03:55;2.60;;;2.20;;
2652;SDS011;1336;48.692;9.144;2024-03-29T08:04:47;3.28;;;2.30;;
2652;SDS011;1336;48.692;9.144;2024-03-29T08:05:37;3.70;;;2.53;;
2652;SDS011;1336;48.692;9.144;2024-03-29T08:06:28;3.60;;;2.60;;
2652;SDS011;1336;48.692;9.144;2024-03-29T08:07:20;2.80;;;2.30;;
2652;SDS011;1336;48.692;9.144;2024-03-29T08:08:11;4.03;;;2.20;;
2652;SDS011;1336;48.692;9.144;2024-03-29T08:09:01;5.60;;;2.10;;
2652;SDS011;1336;48.692;9.144;2024-03-29T08:09:53;2.95;;;2.40;;
2652;SDS011;1336;48.692;9.144;2024-03-29T08:10:44;2.70;;;2.00;;
2652;SDS011;1336;48.692;9.144;2024-03-29T08:11:35;2.40;;;2.20;;
2652;SDS011;1336;48.692;9.144;2024-03-29T08:12:27;2.22;;;2.03;;
2652;SDS011;1336;48.692;9.144;2024-03-29T08:13:18;1.60;;;1.50;;
2652;SDS011;1336;48.692;9.144;2024-03-29T08:14:10;2.10;;;1.90;;
2652;SDS011;1336;48.692;9.144;2024-03-29T08:15:02;2.08;;;1.38;;
2652;SDS011;1336;48.692;9.144;2024-03-29T08:15:56;3.08;;;1.75;;
2652;SDS011;1336;48.692;9.144;2024-03-29T08:16:48;1.92;;;1.70;;
2652;SDS011;1336;48.692;9.144;2024-03-29T08:17:41;2.17;;;1.92;;
2652;SDS011;1336;48.692;9.144;2024-03-29T08:18:33;3.00;;;1.90;;
2652;SDS011;1336;48.692;9.144;2024-03-29T08:19:24;2.42;;;1.88;;
2652;SDS011;1336;48.692;9.144;2024-03-29T08:20:15;2.17;;;1.77;;
2652;SDS011;1336;48.692;9.144;2024-03-29T08:21:06;2.80;;;1.97;;
2652;SDS011;1336;48.692;9.144;2024-03-29T08:22:01;3.05;;;1.88;;
2652;SDS011;1336;48.692;9.144;2024-03-29T08:22:53;2.47;;;1.80;;
2652;SDS011;1336;48.692;9.144;2024-03-29T08:23:45;2.67;;;1.85;;
2652;SDS011;1336;48.692;9.144;2024-03-29T08:24:38;1.77;;;1.67;;
2652;SDS011;1336;48.692;9.144;2024-03-29T08:25:29;2.20;;;1.67;;
2652;SDS011;1336;48.692;9.144;2024-03-29T08:26:19;1.75;;;1.33;;
2652;SDS011;1336;48.692;9.144;2024-03-29T08:27:11;2.40;;;1.50;;
2652;SDS011;1336;48.692;9.144;2024-03-29T08:28:02;1.43;;;1.23;;
2652;SDS011;1336;48.692;9.144;2024-03-29T08:28:54;1.40;;;1.15;;
2652;SDS011;1336;48.692;9.144;2024-03-29T08:29:46;1.55;;;1.27;;
2652;SDS011;1336;48.692;9.144;2024-03-29T08:30:39;1.65;;;1.30;;
2652;SDS011;1336;48.692;9.144;2024-03-29T08:31:31;3.80;;;1.80;;
2652;SDS011;1336;48.692;9.144;2024-03-29T08:32:21;2.07;;;1.80;;
2652;SDS011;1336;48.692;9.144;2024-03-29T08:33:13;2.30;;;1.70;;
2652;SDS011;1336;48.692;9.144;2024-03-29T08:34:05;1.50;;;1.38;;
2652;SDS011;1336;48.692;9.144;2024-03-29T08:35:00;2.38;;;1.92;;
2652;SDS011;1336;48.692;9.144;2024-03-29T08:35:52;1.63;;;1.53;;
2652;SDS011;1336;48.692;9.144;2024-03-29T08:36:43;1.73;;;1.63;;
2652;SDS011;1336;48.692;9.144;2024-03-29T08:37:34;3.28;;;1.50;;
2652;SDS011;1336;48.692;9.144;2024-03-29T08:38:25;1.70;;;1.50;;
2652;SDS011;1336;48.692;9.144;2024-03-29T08:39:17;2.13;;;1.58;;
2652;SDS011;1336;48.692;9.144;2024-03-29T08:40:08;1.77;;;1.50;;
2652;SDS011;1336;48.692;9.144;2024-03-29T08:40:59;2.13;;;1.45;;
2652;SDS011;1336;48.692;9.144;2024-03-29T08:41:51;2.03;;;1.50;;
2652;SDS011;1336;48.692;9.144;2024-03-29T08:42:42;3.17;;;1.43;;
2652;SDS011;1336;48.692;9.144;2024-03-29T08:43:32;2.50;;;1.60;;
2652;SDS011;1336;48.692;9.144;2024-03-29T08:44:24;1.52;;;1.40;;
2652;SDS011;1336;48.692;9.144;2024-03-29T08:45:15;4.23;;;2.20;;
2652;SDS011;1336;48.692;9.144;2024-03-29T08:46:06;3.03;;;1.90;;
2652;SDS011;1336;48.692;9.144;2024-03-29T08:46:59;2.85;;;2.20;;
2652;SDS011;1336;48.692;9.144;2024-03-29T08:47:51;3.00;;;2.70;;
2652;SDS011;1336;48.692;9.144;2024-03-29T08:48:43;3.45;;;2.88;;
2652;SDS011;1336;48.692;9.144;2024-03-29T08:49:36;3.10;;;2.78;;
2652;SDS011;1336;48.692;9.144;2024-03-29T08:50:27;3.65;;;2.83;;
2652;SDS011;1336;48.692;9.144;2024-03-29T08:51:17;3.80;;;3.10;;
2652;SDS011;1336;48.692;9.144;2024-03-29T08:52:09;3.85;;;3.45;;
2652;SDS011;1336;48.692;9.144;2024-03-29T08:53:00;3.10;;;2.83;;
2652;SDS011;1336;48.692;9.144;2024-03-29T08:53:53;4.05;;;3.25;;
2652;SDS011;1336;48.692;9.144;2024-03-29T08:54:44;3.87;;;3.20;;
2652;SDS011;1336;48.692;9.144;2024-03-29T08:55:34;3.90;;;2.63;;
2652;SDS011;1336;48.692;9.144;2024-03-29T08:56:29;3.42;;;3.13;;
2652;SDS011;1336;48.692;9.144;2024-03-29T08:57:20;3.47;;;3.17;;
2652;SDS011;1336;48.692;9.144;2024-03-29T08:58:11;3.47;;;3.17;;
2652;SDS011;1336;48.692;9.144;2024-03-29T08:59:02;3.43;;;3.13;;
2652;SDS011;1336;48.692;9.144;2024-03-29T08:59:57;4.88;;;3.78;;
2652;SDS011;1336;48.692;9.144;2024-03-29T09:00:52;4.65;;;4.25;;
2652;SDS011;1336;48.692;9.144;2024-03-29T09:01:44;4.00;;;3.70;;
2652;SDS011;1336;48.692;9.144;2024-03-29T09:02:38;5.43;;;3.83;;
2652;SDS011;1336;48.692;9.144;2024-03-29T09:03:29;4.40;;;4.00;;
2652;SDS011;1336;48.692;9.144;2024-03-29T09:04:20;5.72;;;3.80;;
2652;SDS011;1336;48.692;9.144;2024-03-29T09:05:15;4.13;;;3.83;;
2652;SDS011;1336;48.692;9.144;2024-03-29T09:06:06;3.28;;;3.08;;
2652;SDS011;1336;48.692;9.144;2024-03-29T09:06:58;3.88;;;3.25;;
2652;SDS011;1336;48.692;9.144;2024-03-29T09:07:49;3.47;;;3.17;;
2652;SDS011;1336;48.692;9.144;2024-03-29T09:08:41;3.40;;;3.20;;
2652;SDS011;1336;48.692;9.144;2024-03-29T09:09:32;3.43;;;2.97;;
2652;SDS011;1336;48.692;9.144;2024-03-29T09:10:25;3.00;;;2.80;;
2652;SDS011;1336;48.692;9.144;2024-03-29T09:11:16;3.15;;;2.92;;
2652;SDS011;1336;48.692;9.144;2024-03-29T09:12:08;2.65;;;2.45;;
2652;SDS011;1336;48.692;9.144;2024-03-29T09:12:59;3.05;;;2.85;;
2652;SDS011;1336;48.692;9.144;2024-03-29T09:13:51;3.28;;;2.92;;
2652;SDS011;1336;48.692;9.144;2024-03-29T09:14:44;3.28;;;2.90;;
2652;SDS011;1336;48.692;9.144;2024-03-29T09:15:34;2.93;;;2.40;;
2652;SDS011;1336;48.692;9.144;2024-03-29T09:16:26;2.75;;;2.55;;
2652;SDS011;1336;48.692;9.144;2024-03-29T09:17:18;2.10;;;2.00;;
2652;SDS011;1336;48.692;9.144;2024-03-29T09:18:11;3.60;;;2.25;;
2652;SDS011;1336;48.692;9.144;2024-03-29T09:19:12;2.40;;;2.20;;
2652;SDS011;1336;48.692;9.144;2024-03-29T09:20:04;3.00;;;2.05;;
2652;SDS011;1336;48.692;9.144;2024-03-29T09:20:57;3.35;;;2.40;;
2652;SDS011;1336;48.692;9.144;2024-03-29T09:21:49;2.40;;;2.00;;
2652;SDS011;1336;48.692;9.144;2024-03-29T09:22:40;2.90;;;2.17;;
2652;SDS011;1336;48.692;9.144;2024-03-29T09:23:30;3.40;;;2.27;;
2652;SDS011;1336;48.692;9.144;2024-03-29T09:24:23;2.17;;;1.52;;
2652;SDS011;1336;48.692;9.144;2024-03-29T09:25:15;2.55;;;2.00;;
2652;SDS011;1336;48.692;9.144;2024-03-29T09:26:06;3.23;;;1.30;;
2652;SDS011;1336;48.692;9.144;2024-03-29T09:26:58;1.30;;;1.20;;
2652;SDS011;1336;48.692;9.144;2024-03-29T09:27:49;1.87;;;1.50;;
2652;SDS011;1336;48.692;9.144;2024-03-29T09:28:39;2.50;;;1.30;;
2652;SDS011;1336;48.692;9.144;2024-03-29T09:29:31;2.20;;;1.33;;
2652;SDS011;1336;48.692;9.144;2024-03-29T09:30:22;3.43;;;1.50;;
2652;SDS011;1336;48.692;9.144;2024-03-29T09:31:13;2.00;;;1.17;;
2652;SDS011;1336;48.692;9.144;2024-03-29T09:32:05;1.60;;;0.98;;
2652;SDS011;1336;48.692;9.144;2024-03-29T09:32:56;1.42;;;1.20;;
2652;SDS011;1336;48.692;9.144;2024-03-29T09:33:47;1.20;;;0.90;;
2652;SDS011;1336;48.692;9.144;2024-03-29T09:34:46;1.77;;;1.00;;
2652;SDS011;1336;48.692;9.144;2024-03-29T09:35:36;2.55;;;1.40;;
2652;SDS011;1336;48.692;9.144;2024-03-29T09:36:29;1.40;;;1.30;;
2652;SDS011;1336;48.692;9.144;2024-03-29T09:37:20;2.03;;;1.20;;
2652;SDS011;1336;48.692;9.144;2024-03-29T09:38:11;1.40;;;1.13;;
2652;SDS011;1336;48.692;9.144;2024-03-29T09:39:03;1.83;;;1.00;;
2652;SDS011;1336;48.692;9.144;2024-03-29T09:39:55;1.83;;;1.08;;
2652;SDS011;1336;48.692;9.144;2024-03-29T09:40:45;1.40;;;0.90;;
2652;SDS011;1336;48.692;9.144;2024-03-29T09:41:39;1.30;;;1.00;;
2652;SDS011;1336;48.692;9.144;2024-03-29T09:42:34;2.75;;;1.23;;
2652;SDS011;1336;48.692;9.144;2024-03-29T09:43:28;1.50;;;1.30;;
2652;SDS011;1336;48.692;9.144;2024-03-29T09:44:20;2.40;;;1.38;;
2652;SDS011;1336;48.692;9.144;2024-03-29T09:45:14;1.33;;;1.20;;
2652;SDS011;1336;48.692;9.144;2024-03-29T09:46:06;1.38;;;1.27;;
2652;SDS011;1336;48.692;9.144;2024-03-29T09:46:58;1.77;;;1.30;;
2652;SDS011;1336;48.692;9.144;2024-03-29T09:47:53;1.35;;;1.20;;
2652;SDS011;1336;48.692;9.144;2024-03-29T09:48:46;1.45;;;1.20;;
2652;SDS011;1336;48.692;9.144;2024-03-29T09:49:38;2.15;;;1.33;;
2652;SDS011;1336;48.692;9.144;2024-03-29T09:50:34;3.00;;;2.22;;
2652;SDS011;1336;48.692;9.144;2024-03-29T09:51:26;2.60;;;2.10;;
2652;SDS011;1336;48.692;9.144;2024-03-29T09:52:19;1.85;;;1.63;;
2652;SDS011;1336;48.692;9.144;2024-03-29T09:53:12;2.05;;;1.60;;
2652;SDS011;1336;48.692;9.144;2024-03-29T09:54:02;2.57;;;1.90;;
2652;SDS011;1336;48.692;9.144;2024-03-29T09:54:58;2.22;;;1.80;;
2652;SDS011;1336;48.692;9.144;2024-03-29T09:55:51;2.35;;;1.58;;
2652;SDS011;1336;48.692;9.144;2024-03-29T09:56:42;1.50;;;1.40;;
2652;SDS011;1336;48.692;9.144;2024-03-29T09:57:33;2.03;;;1.50;;
2652;SDS011;1336;48.692;9.144;2024-03-29T09:58:24;2.10;;;1.20;;
2652;SDS011;1336;48.692;9.144;2024-03-29T09:59:15;1.90;;;1.10;;
2652;SDS011;1336;48.692;9.144;2024-03-29T10:00:07;3.60;;;1.20;;
2652;SDS011;1336;48.692;9.144;2024-03-29T10:00:59;1.75;;;1.20;;
2652;SDS011;1336;48.692;9.144;2024-03-29T10:01:51;2.13;;;1.40;;
2652;SDS011;1336;48.692;9.144;2024-03-29T10:02:42;2.35;;;1.42;;
2652;SDS011;1336;48.692;9.144;2024-03-29T10:03:34;3.00;;;1.90;;
2652;SDS011;1336;48.692;9.144;2024-03-29T10:04:28;2.03;;;1.70;;
2652;SDS011;1336;48.692;9.144;2024-03-29T10:05:20;2.90;;;1.60;;
2652;SDS011;1336;48.692;9.144;2024-03-29T10:06:12;2.25;;;1.40;;
2652;SDS011;1336;48.692;9.144;2024-03-29T10:07:05;2.42;;;1.48;;
2652;SDS011;1336;48.692;9.144;2024-03-29T10:07:57;2.50;;;1.80;;
2652;SDS011;1336;48.692;9.144;2024-03-29T10:08:55;2.30;;;1.63;;
2652;SDS011;1336;48.692;9.144;2024-03-29T10:09:48;1.73;;;1.63;;
2652;SDS011;1336;48.692;9.144;2024-03-29T10:10:40;1.40;;;1.30;;
2652;SDS011;1336;48.692;9.144;2024-03-29T10:11:32;2.10;;;1.60;;
2652;SDS011;1336;48.692;9.144;2024-03-29T10:12:23;4.10;;;2.10;;
2652;SDS011;1336;48.692;9.144;2024-03-29T10:13:15;2.60;;;1.33;;
2652;SDS011;1336;48.692;9.144;2024-03-29T10:14:05;1.20;;;1.10;;
2652;SDS011;1336;48.692;9.144;2024-03-29T10:14:56;1.60;;;1.30;;
2652;SDS011;1336;48.692;9.144;2024-03-29T10:15:56;5.30;;;1.77;;
2652;SDS011;1336;48.692;9.144;2024-03-29T10:16:47;1.75;;;1.63;;
2652;SDS011;1336;48.692;9.144;2024-03-29T10:17:37;2.30;;;1.60;;
2652;SDS011;1336;48.692;9.144;2024-03-29T10:18:29;2.50;;;1.90;;
2652;SDS011;1336;48.692;9.144;2024-03-29T10:19:20;3.03;;;1.75;;
2652;SDS011;1336;48.692;9.144;2024-03-29T10:20:11;1.80;;;1.70;;
2652;SDS011;1336;48.692;9.144;2024-03-29T10:21:06;2.10;;;1.70;;
2652;SDS011;1336;48.692;9.144;2024-03-29T10:22:06;4.30;;;1.50;;
2652;SDS011;1336;48.692;9.144;2024-03-29T10:22:57;2.08;;;1.42;;
2652;SDS011;1336;48.692;9.144;2024-03-29T10:23:53;1.50;;;1.40;;
2652;SDS011;1336;48.692;9.144;2024-03-29T10:24:43;1.90;;;1.70;;
2652;SDS011;1336;48.692;9.144;2024-03-29T10:25:34;2.03;;;1.60;;
2652;SDS011;1336;48.692;9.144;2024-03-29T10:26:26;1.85;;;1.70;;
2652;SDS011;1336;48.692;9.144;2024-03-29T10:27:17;3.57;;;1.70;;
2652;SDS011;1336;48.692;9.144;2024-03-29T10:28:07;2.23;;;2.03;;
2652;SDS011;1336;48.692;9.144;2024-03-29T10:28:59;2.63;;;1.80;;
2652;SDS011;1336;48.692;9.144;2024-03-29T10:29:51;2.95;;;1.70;;
2652;SDS011;1336;48.692;9.144;2024-03-29T10:30:43;2.45;;;1.65;;
2652;SDS011;1336;48.692;9.144;2024-03-29T10:31:34;1.67;;;1.40;;
2652;SDS011;1336;48.692;9.144;2024-03-29T10:32:26;2.65;;;1.60;;
2652;SDS011;1336;48.692;9.144;2024-03-29T10:33:17;3.40;;;2.37;;
2652;SDS011;1336;48.692;9.144;2024-03-29T10:34:08;3.20;;;2.13;;
2652;SDS011;1336;48.692;9.144;2024-03-29T10:35:00;2.67;;;1.98;;
2652;SDS011;1336;48.692;9.144;2024-03-29T10:35:52;2.85;;;2.50;;
2652;SDS011;1336;48.692;9.144;2024-03-29T10:36:46;3.00;;;2.67;;
2652;SDS011;1336;48.692;9.144;2024-03-29T10:37:42;3.25;;;2.22;;
2652;SDS011;1336;48.692;9.144;2024-03-29T10:38:34;4.20;;;2.45;;
2652;SDS011;1336;48.692;9.144;2024-03-29T10:39:26;2.90;;;2.08;;
2652;SDS011;1336;48.692;9.144;2024-03-29T10:40:18;1.95;;;1.75;;
2652;SDS011;1336;48.692;9.144;2024-03-29T10:41:14;3.38;;;1.42;;
2652;SDS011;1336;48.692;9.144;2024-03-29T10:42:06;2.90;;;1.75;;
2652;SDS011;1336;48.692;9.144;2024-03-29T10:42:59;2.00;;;1.50;;
2652;SDS011;1336;48.692;9.144;2024-03-29T10:43:54;2.35;;;1.33;;
2652;SDS011;1336;48.692;9.144;2024-03-29T10:44:47;2.15;;;1.50;;
2652;SDS011;1336;48.692;9.144;2024-03-29T10:45:40;1.63;;;1.35;;
2652;SDS011;1336;48.692;9.144;2024-03-29T10:46:30;2.83;;;1.40;;
2652;SDS011;1336;48.692;9.144;2024-03-29T10:47:22;1.80;;;1.30;;
2652;SDS011;1336;48.692;9.144;2024-03-29T10:48:15;2.88;;;1.50;;
2652;SDS011;1336;48.692;9.144;2024-03-29T10:49:07;3.65;;;1.70;;
2652;SDS011;1336;48.692;9.144;2024-03-29T10:49:59;1.90;;;1.70;;
2652;SDS011;1336;48.692;9.144;2024-03-29T10:50:53;2.70;;;1.33;;
2652;SDS011;1336;48.692;9.144;2024-03-29T10:51:44;2.13;;;1.48;;
2652;SDS011;1336;48.692;9.144;2024-03-29T10:52:35;2.03;;;1.30;;
2652;SDS011;1336;48.692;9.144;2024-03-29T10:53:29;1.10;;;0.95;;
2652;SDS011;1336;48.692;9.144;2024-03-29T10:54:20;2.33;;;1.63;;
2652;SDS011;1336;48.692;9.144;2024-03-29T10:55:11;1.63;;;1.23;;
2652;SDS011;1336;48.692;9.144;2024-03-29T10:56:04;3.58;;;1.65;;
2652;SDS011;1336;48.692;9.144;2024-03-29T10:56:59;2.33;;;1.60;;
2652;SDS011;1336;48.692;9.144;2024-03-29T10:57:52;1.92;;;1.40;;
2652;SDS011;1336;48.692;9.144;2024-03-29T10:58:46;1.40;;;1.30;;
2652;SDS011;1336;48.692;9.144;2024-03-29T10:59:47;1.60;;;1.35;;
2652;SDS011;1336;48.692;9.144;2024-03-29T11:00:45;4.65;;;1.85;;
2652;SDS011;1336;48.692;9.144;2024-03-29T11:01:38;4.38;;;2.53;;
2652;SDS011;1336;48.692;9.144;2024-03-29T11:02:34;2.85;;;2.13;;
2652;SDS011;1336;48.692;9.144;2024-03-29T11:03:32;2.40;;;2.20;;
2652;SDS011;1336;48.692;9.144;2024-03-29T11:04:32;2.65;;;2.30;;
2652;SDS011;1336;48.692;9.144;2024-03-29T11:05:27;2.85;;;2.50;;
2652;SDS011;1336;48.692;9.144;2024-03-29T11:06:20;2.83;;;2.38;;
2652;SDS011;1336;48.692;9.144;2024-03-29T11:07:19;3.08;;;2.78;;
2652;SDS011;1336;48.692;9.144;2024-03-29T11:08:11;3.15;;;2.50;;
2652;SDS011;1336;48.692;9.144;2024-03-29T11:09:08;2.90;;;2.58;;
2652;SDS011;1336;48.692;9.144;2024-03-29T11:10:05;3.05;;;2.30;;
2652;SDS011;1336;48.692;9.144;2024-03-29T11:10:57;3.88;;;2.20;;
2652;SDS011;1336;48.692;9.144;2024-03-29T11:11:50;3.58;;;2.60;;
2652;SDS011;1336;48.692;9.144;2024-03-29T11:12:46;2.30;;;2.10;;
2652;SDS011;1336;48.692;9.144;2024-03-29T11:13:52;3.67;;;2.50;;
2652;SDS011;1336;48.692;9.144;2024-03-29T11:14:48;2.40;;;2.20;;
2652;SDS011;1336;48.692;9.144;2024-03-29T11:15:47;2.20;;;2.00;;
2652;SDS011;1336;48.692;9.144;2024-03-29T11:16:41;3.00;;;2.30;;
2652;SDS011;1336;48.692;9.144;2024-03-29T11:17:35;2.30;;;2.10;;
2652;SDS011;1336;48.692;9.144;2024-03-29T11:18:28;3.58;;;2.45;;
2652;SDS011;1336;48.692;9.144;2024-03-29T11:19:20;3.40;;;2.42;;
2652;SDS011;1336;48.692;9.144;2024-03-29T11:20:11;3.05;;;2.00;;
2652;SDS011;1336;48.692;9.144;2024-03-29T11:21:08;2.75;;;1.95;;
2652;SDS011;1336;48.692;9.144;2024-03-29T11:22:01;3.08;;;2.35;;
2652;SDS011;1336;48.692;9.144;2024-03-29T11:22:53;2.10;;;1.90;;
2652;SDS011;1336;48.692;9.144;2024-03-29T11:23:47;2.25;;;2.05;;
2652;SDS011;1336;48.692;9.144;2024-03-29T11:24:40;2.40;;;2.20;;
2652;SDS011;1336;48.692;9.144;2024-03-29T11:25:41;3.50;;;1.70;;
2652;SDS011;1336;48.692;9.144;2024-03-29T11:26:33;1.85;;;1.70;;
2652;SDS011;1336;48.692;9.144;2024-03-29T11:27:24;2.80;;;2.40;;
2652;SDS011;1336;48.692;9.144;2024-03-29T11:28:22;2.53;;;2.22;;